createdAt,value
2018-04-30T00:02:21.659Z,7.30
2018-04-30T00:04:49.297Z,2.87
2018-04-30T00:07:16.982Z,4.40
2018-04-30T00:09:44.618Z,2.30
2018-04-30T00:12:12.309Z,5.30
2018-04-30T00:14:39.962Z,3.50
2018-04-30T00:17:07.641Z,3.53
2018-04-30T00:19:35.310Z,3.77
2018-04-30T00:22:03.028Z,4.67
2018-04-30T00:24:30.670Z,4.27
2018-04-30T00:26:58.400Z,3.60
2018-04-30T00:29:28.030Z,3.07
2018-04-30T00:31:55.706Z,2.63
2018-04-30T00:34:23.384Z,3.00
2018-04-30T00:36:51.092Z,2.50
2018-04-30T00:39:18.745Z,4.63
2018-04-30T00:41:46.446Z,3.87
2018-04-30T00:44:14.129Z,2.80
2018-04-30T00:46:41.770Z,4.00
2018-04-30T00:49:09.392Z,4.40
2018-04-30T00:51:37.090Z,4.33
2018-04-30T00:54:04.743Z,3.03
2018-04-30T00:56:32.376Z,4.37
2018-04-30T00:59:00.043Z,6.93
2018-04-30T01:01:27.682Z,4.33
2018-04-30T01:03:55.377Z,4.73
2018-04-30T01:06:23.065Z,4.20
2018-04-30T01:08:50.700Z,3.33
2018-04-30T01:11:18.398Z,2.93
2018-04-30T01:13:46.086Z,7.07
2018-04-30T01:16:13.714Z,5.33
2018-04-30T01:18:41.341Z,7.07
2018-04-30T01:21:08.974Z,4.20
2018-04-30T01:23:36.662Z,5.13
2018-04-30T01:26:04.298Z,5.40
2018-04-30T01:28:32.011Z,7.27
2018-04-30T01:30:59.722Z,4.47
2018-04-30T01:33:27.389Z,5.17
2018-04-30T01:35:55.105Z,4.77
2018-04-30T01:38:22.764Z,4.93
2018-04-30T01:40:50.438Z,4.40
2018-04-30T01:43:18.114Z,3.93
2018-04-30T01:45:45.810Z,6.73
2018-04-30T01:48:13.453Z,6.37
2018-04-30T01:50:41.094Z,3.80
2018-04-30T01:53:08.743Z,5.20
2018-04-30T01:55:36.374Z,5.83
2018-04-30T01:58:04.082Z,6.47
2018-04-30T02:00:31.811Z,6.40
2018-04-30T02:02:59.518Z,7.77
2018-04-30T02:05:27.222Z,6.30
2018-04-30T02:07:54.906Z,4.10
2018-04-30T02:10:22.622Z,6.53
2018-04-30T02:12:50.246Z,8.00
2018-04-30T02:15:17.915Z,6.70
2018-04-30T02:17:45.545Z,5.57
2018-04-30T02:20:13.221Z,7.10
2018-04-30T02:22:40.914Z,6.63
2018-04-30T02:25:08.566Z,4.03
2018-04-30T02:27:36.301Z,5.13
2018-04-30T02:30:04.061Z,8.57
2018-04-30T02:32:31.666Z,5.80
2018-04-30T02:34:59.254Z,6.47
2018-04-30T02:37:26.922Z,5.50
2018-04-30T02:39:54.606Z,5.10
2018-04-30T02:42:22.258Z,3.80
2018-04-30T02:44:49.906Z,8.30
2018-04-30T02:47:17.646Z,8.73
2018-04-30T02:49:45.278Z,6.37
2018-04-30T02:52:12.910Z,9.13
2018-04-30T02:54:40.611Z,7.30
2018-04-30T02:57:08.265Z,4.13
2018-04-30T02:59:35.953Z,5.00
2018-04-30T03:02:03.694Z,6.43
2018-04-30T03:04:31.345Z,6.27
2018-04-30T03:06:59.018Z,5.90
2018-04-30T03:09:26.738Z,7.23
2018-04-30T03:11:54.374Z,5.97
2018-04-30T03:14:22.038Z,4.80
2018-04-30T03:16:49.675Z,9.03
2018-04-30T03:19:17.346Z,6.37
2018-04-30T03:21:45.056Z,5.47
2018-04-30T03:24:12.785Z,6.87
2018-04-30T03:26:40.514Z,9.97
2018-04-30T03:29:08.223Z,5.73
2018-04-30T03:31:35.906Z,10.70
2018-04-30T03:34:03.606Z,13.43
2018-04-30T03:36:31.298Z,6.47
2018-04-30T03:38:59.022Z,10.50
2018-04-30T03:41:26.698Z,14.10
2018-04-30T03:43:54.426Z,5.37
2018-04-30T03:46:22.086Z,7.90
2018-04-30T03:48:49.809Z,5.90
2018-04-30T03:51:17.515Z,8.13
2018-04-30T03:53:45.170Z,7.27
2018-04-30T03:56:12.876Z,8.07
2018-04-30T03:58:40.498Z,6.93
2018-04-30T04:01:19.918Z,6.60
2018-04-30T04:03:59.324Z,10.17
2018-04-30T04:09:28.534Z,9.47
2018-04-30T04:11:56.206Z,10.13
2018-04-30T04:14:23.929Z,7.77
2018-04-30T04:16:51.570Z,12.70
2018-04-30T04:19:19.263Z,9.17
2018-04-30T04:21:46.937Z,9.20
2018-04-30T04:24:14.599Z,13.70
2018-04-30T04:26:42.243Z,10.70
2018-04-30T04:29:11.192Z,8.87
2018-04-30T04:31:39.331Z,13.43
2018-04-30T04:34:07.155Z,11.37
2018-04-30T04:36:34.878Z,12.63
2018-04-30T04:39:02.542Z,10.63
2018-04-30T04:41:30.165Z,20.37
2018-04-30T04:43:57.850Z,11.10
2018-04-30T04:46:25.453Z,10.87
2018-04-30T04:48:53.090Z,11.77
2018-04-30T04:51:20.795Z,10.63
2018-04-30T04:53:48.496Z,9.23
2018-04-30T04:56:16.175Z,11.47
2018-04-30T04:58:43.844Z,9.50
2018-04-30T05:01:11.506Z,11.10
2018-04-30T05:03:39.169Z,12.00
2018-04-30T05:06:06.867Z,19.50
2018-04-30T05:08:34.529Z,10.30
2018-04-30T05:11:02.171Z,16.03
2018-04-30T05:13:29.950Z,9.27
2018-04-30T05:15:57.670Z,12.83
2018-04-30T05:18:25.366Z,10.57
2018-04-30T05:20:53.040Z,14.30
2018-04-30T05:23:20.658Z,10.90
2018-04-30T05:25:48.481Z,13.67
2018-04-30T05:28:16.174Z,12.47
2018-04-30T05:30:43.845Z,10.47
2018-04-30T05:33:11.575Z,14.43
2018-04-30T05:35:39.233Z,9.20
2018-04-30T05:38:06.849Z,11.83
2018-04-30T05:40:34.517Z,12.07
2018-04-30T05:43:02.221Z,14.67
2018-04-30T05:45:29.877Z,10.60
2018-04-30T05:47:57.550Z,12.70
2018-04-30T05:50:25.245Z,11.57
2018-04-30T05:52:52.977Z,8.30
2018-04-30T05:55:20.623Z,10.33
2018-04-30T05:57:48.322Z,13.63
2018-04-30T06:00:15.928Z,14.57
2018-04-30T06:02:43.566Z,7.23
2018-04-30T06:05:11.229Z,7.70
2018-04-30T06:07:39.474Z,8.57
2018-04-30T06:10:07.124Z,10.37
2018-04-30T06:12:34.723Z,10.53
2018-04-30T06:15:02.325Z,8.93
2018-04-30T06:17:30.001Z,9.03
2018-04-30T06:19:57.599Z,9.80
2018-04-30T06:22:25.219Z,10.37
2018-04-30T06:24:52.805Z,8.03
2018-04-30T06:27:20.429Z,10.53
2018-04-30T06:29:48.022Z,7.43
2018-04-30T06:32:15.610Z,9.07
2018-04-30T06:34:43.213Z,13.20
2018-04-30T06:37:10.810Z,10.17
2018-04-30T06:39:38.400Z,11.33
2018-04-30T06:42:06.001Z,8.90
2018-04-30T06:44:33.617Z,7.00
2018-04-30T06:47:01.222Z,7.03
2018-04-30T06:49:28.841Z,10.20
2018-04-30T06:51:56.421Z,5.17
2018-04-30T06:54:24.004Z,9.60
2018-04-30T06:56:51.620Z,12.83
2018-04-30T06:59:19.209Z,16.43
2018-04-30T07:01:46.817Z,6.50
2018-04-30T07:04:14.428Z,7.63
2018-04-30T07:06:42.187Z,7.37
2018-04-30T07:09:09.797Z,5.17
2018-04-30T07:11:37.387Z,9.10
2018-04-30T07:14:04.988Z,9.97
2018-04-30T07:16:32.585Z,15.00
2018-04-30T07:19:00.229Z,5.60
2018-04-30T07:21:27.841Z,8.53
2018-04-30T07:23:55.441Z,6.43
2018-04-30T07:26:23.040Z,9.43
2018-04-30T07:28:50.622Z,6.77
2018-04-30T07:31:18.241Z,5.20
2018-04-30T07:33:45.838Z,7.33
2018-04-30T07:36:13.463Z,5.80
2018-04-30T07:38:41.155Z,6.07
2018-04-30T07:41:08.755Z,7.87
2018-04-30T07:43:36.345Z,11.33
2018-04-30T07:46:03.993Z,4.97
2018-04-30T07:48:31.634Z,9.90
2018-04-30T07:50:59.403Z,4.70
2018-04-30T07:53:27.062Z,6.53
2018-04-30T07:55:54.649Z,4.37
2018-04-30T07:58:22.245Z,10.47
2018-04-30T08:00:49.861Z,9.17
2018-04-30T08:03:17.445Z,8.80
2018-04-30T08:05:45.069Z,13.60
2018-04-30T08:08:12.672Z,6.10
2018-04-30T08:10:40.279Z,8.47
2018-04-30T08:13:07.867Z,5.60
2018-04-30T08:15:35.493Z,6.70
2018-04-30T08:18:03.094Z,9.47
2018-04-30T08:20:30.713Z,6.57
2018-04-30T08:22:58.361Z,10.47
2018-04-30T08:25:25.953Z,7.03
2018-04-30T08:27:53.573Z,5.83
2018-04-30T08:30:21.197Z,9.53
2018-04-30T08:32:48.792Z,5.83
2018-04-30T08:35:16.385Z,8.00
2018-04-30T08:37:44.019Z,12.87
2018-04-30T08:40:11.633Z,8.60
2018-04-30T08:42:39.266Z,7.27
2018-04-30T08:45:07.058Z,10.23
2018-04-30T08:47:34.625Z,11.07
2018-04-30T08:50:02.257Z,8.97
2018-04-30T08:52:29.859Z,12.90
2018-04-30T08:54:57.451Z,7.00
2018-04-30T08:57:25.055Z,5.17
2018-04-30T08:59:52.636Z,7.23
2018-04-30T09:02:20.262Z,6.83
2018-04-30T09:04:47.845Z,8.20
2018-04-30T09:07:15.438Z,12.53
2018-04-30T09:09:43.021Z,6.60
2018-04-30T09:12:10.654Z,6.03
2018-04-30T09:14:38.238Z,6.60
2018-04-30T09:17:05.839Z,13.77
2018-04-30T09:19:33.433Z,8.00
2018-04-30T09:22:01.025Z,11.93
2018-04-30T09:24:28.726Z,9.03
2018-04-30T09:26:56.338Z,6.47
2018-04-30T09:29:23.939Z,8.07
2018-04-30T09:31:51.554Z,7.67
2018-04-30T09:34:19.137Z,6.20
2018-04-30T09:36:46.946Z,20.33
2018-04-30T09:39:14.591Z,10.23
2018-04-30T09:41:42.257Z,5.27
2018-04-30T09:44:09.862Z,6.00
2018-04-30T09:46:37.493Z,12.27
2018-04-30T09:49:05.088Z,10.70
2018-04-30T09:51:32.678Z,8.63
2018-04-30T09:54:00.317Z,6.40
2018-04-30T09:56:27.994Z,8.37
2018-04-30T09:58:55.627Z,5.77
2018-04-30T10:01:23.301Z,9.53
2018-04-30T10:03:50.977Z,13.23
2018-04-30T10:06:18.639Z,9.30
2018-04-30T10:08:46.262Z,8.43
2018-04-30T10:11:14.164Z,6.77
2018-04-30T10:13:41.838Z,11.00
2018-04-30T10:16:09.542Z,12.13
2018-04-30T10:18:37.250Z,11.77
2018-04-30T10:21:04.950Z,16.07
2018-04-30T10:23:32.663Z,10.30
2018-04-30T10:26:00.417Z,12.03
2018-04-30T10:28:28.100Z,8.30
2018-04-30T10:30:55.912Z,12.77
2018-04-30T10:33:23.574Z,11.73
2018-04-30T10:35:51.170Z,9.40
2018-04-30T10:38:18.879Z,10.03
2018-04-30T10:40:47.410Z,9.00
2018-04-30T10:43:15.101Z,11.60
2018-04-30T10:45:42.718Z,11.63
2018-04-30T10:48:10.389Z,14.17
2018-04-30T10:50:37.978Z,11.60
2018-04-30T10:53:05.629Z,12.57
2018-04-30T10:55:33.270Z,12.23
2018-04-30T10:58:00.890Z,10.10
2018-04-30T11:00:28.498Z,11.07
2018-04-30T11:02:56.275Z,12.83
2018-04-30T11:05:23.912Z,10.73
2018-04-30T11:07:51.606Z,14.87
2018-04-30T11:10:19.317Z,15.77
2018-04-30T11:12:47.046Z,10.50
2018-04-30T11:15:14.666Z,11.67
2018-04-30T11:17:42.269Z,13.73
2018-04-30T11:20:09.910Z,11.00
2018-04-30T11:22:38.629Z,9.97
2018-04-30T11:25:06.264Z,9.20
2018-04-30T11:27:33.985Z,9.43
2018-04-30T11:30:01.542Z,13.10
2018-04-30T11:32:29.219Z,10.20
2018-04-30T11:34:56.837Z,10.17
2018-04-30T11:37:24.441Z,48.60
2018-04-30T11:39:52.104Z,45.63
2018-04-30T11:42:19.719Z,12.53
2018-04-30T11:44:47.326Z,10.97
2018-04-30T11:47:15.066Z,14.13
2018-04-30T11:49:42.613Z,11.30
2018-04-30T11:52:10.293Z,13.70
2018-04-30T11:54:37.986Z,12.40
2018-04-30T11:57:05.593Z,14.67
2018-04-30T11:59:33.202Z,14.97
2018-04-30T12:02:00.833Z,13.10
2018-04-30T12:04:28.428Z,7.93
2018-04-30T12:06:56.048Z,8.20
2018-04-30T12:09:23.649Z,10.20
2018-04-30T12:11:51.361Z,11.67
2018-04-30T12:14:18.977Z,10.53
2018-04-30T12:16:46.592Z,11.10
2018-04-30T12:19:14.257Z,12.43
2018-04-30T12:21:41.899Z,20.90
2018-04-30T12:24:09.498Z,9.60
2018-04-30T12:26:37.172Z,12.20
2018-04-30T12:29:04.777Z,9.77
2018-04-30T12:31:32.401Z,12.53
2018-04-30T12:34:00.033Z,10.03
2018-04-30T12:36:28.369Z,9.57
2018-04-30T12:38:55.957Z,9.27
2018-04-30T12:41:23.615Z,8.87
2018-04-30T12:43:51.217Z,10.43
2018-04-30T12:46:18.892Z,13.33
2018-04-30T12:48:46.551Z,11.40
2018-04-30T12:51:14.203Z,10.00
2018-04-30T12:53:41.794Z,16.57
2018-04-30T12:56:09.458Z,10.83
2018-04-30T12:58:37.102Z,15.30
2018-04-30T13:01:04.696Z,8.77
2018-04-30T13:03:32.344Z,13.23
2018-04-30T13:05:59.971Z,9.90
2018-04-30T13:08:27.580Z,13.20
2018-04-30T13:10:55.209Z,14.70
2018-04-30T13:13:22.817Z,15.80
2018-04-30T13:15:50.424Z,12.13
2018-04-30T13:18:18.045Z,15.00
2018-04-30T13:20:45.664Z,8.53
2018-04-30T13:23:13.268Z,11.23
2018-04-30T13:25:40.901Z,12.63
2018-04-30T13:28:08.522Z,11.80
2018-04-30T13:30:36.117Z,15.50
2018-04-30T13:33:03.818Z,16.57
2018-04-30T13:35:31.482Z,13.27
2018-04-30T13:37:59.098Z,15.30
2018-04-30T13:40:26.721Z,8.40
2018-04-30T13:42:54.310Z,16.03
2018-04-30T13:45:21.913Z,10.90
2018-04-30T13:47:49.542Z,11.97
2018-04-30T13:50:17.132Z,15.10
2018-04-30T13:52:44.719Z,10.00
2018-04-30T13:55:12.341Z,12.27
2018-04-30T13:57:39.977Z,10.13
2018-04-30T14:00:07.561Z,12.67
2018-04-30T14:02:35.187Z,14.80
2018-04-30T14:05:02.773Z,12.40
2018-04-30T14:07:30.356Z,9.60
2018-04-30T14:09:57.983Z,11.50
2018-04-30T14:12:25.565Z,10.80
2018-04-30T14:14:53.177Z,10.13
2018-04-30T14:17:20.797Z,12.80
2018-04-30T14:19:48.405Z,10.87
2018-04-30T14:22:16.019Z,13.97
2018-04-30T14:24:43.662Z,10.27
2018-04-30T14:27:11.245Z,9.27
2018-04-30T14:29:38.969Z,8.73
2018-04-30T14:32:06.849Z,13.87
2018-04-30T14:34:34.794Z,9.77
2018-04-30T14:37:03.022Z,12.13
2018-04-30T14:39:30.706Z,8.17
2018-04-30T14:41:58.344Z,11.07
2018-04-30T14:44:26.842Z,8.40
2018-04-30T14:46:54.741Z,7.70
2018-04-30T14:49:22.325Z,12.83
2018-04-30T14:51:49.905Z,9.90
2018-04-30T14:54:17.600Z,9.10
2018-04-30T14:56:48.855Z,7.50
2018-04-30T14:59:18.201Z,11.57
2018-04-30T15:01:45.826Z,8.90
2018-04-30T15:04:14.520Z,9.90
2018-04-30T15:06:42.333Z,8.83
2018-04-30T15:09:09.958Z,10.37
2018-04-30T15:11:37.569Z,7.97
2018-04-30T15:14:12.068Z,10.43
2018-04-30T15:19:44.691Z,12.93
2018-04-30T15:22:13.758Z,12.67
2018-04-30T15:24:41.440Z,10.17
2018-04-30T15:27:09.198Z,10.03
2018-04-30T15:29:36.850Z,8.93
2018-04-30T15:32:04.449Z,13.10
2018-04-30T15:34:32.290Z,9.20
2018-04-30T15:36:59.937Z,9.63
2018-04-30T15:39:27.585Z,9.37
2018-04-30T15:42:10.938Z,7.83
2018-04-30T15:44:40.380Z,9.57
2018-04-30T15:47:08.149Z,9.47
2018-04-30T15:49:36.309Z,8.50
2018-04-30T15:52:04.014Z,9.53
2018-04-30T15:54:46.794Z,11.70
2018-04-30T15:57:14.534Z,13.27
2018-04-30T15:59:42.187Z,14.83
2018-04-30T16:02:33.395Z,7.07
2018-04-30T16:05:01.155Z,5.93
2018-04-30T16:07:33.482Z,10.33
2018-04-30T16:10:01.197Z,9.47
2018-04-30T16:12:28.951Z,8.80
2018-04-30T16:14:56.635Z,10.57
2018-04-30T16:17:35.577Z,11.27
2018-04-30T16:20:03.242Z,12.33
2018-04-30T16:22:30.856Z,8.70
2018-04-30T16:24:58.505Z,9.23
2018-04-30T16:27:26.116Z,14.80
2018-04-30T16:29:53.750Z,11.73
2018-04-30T16:32:21.373Z,15.20
2018-04-30T16:34:49.922Z,11.57
2018-04-30T16:37:17.543Z,14.53
2018-04-30T16:39:45.173Z,15.50
2018-04-30T16:42:12.810Z,10.53
2018-04-30T16:44:40.398Z,11.20
2018-04-30T16:47:08.037Z,9.80
2018-04-30T16:49:37.784Z,11.73
2018-04-30T16:52:06.672Z,15.60
2018-04-30T16:54:35.947Z,12.77
2018-04-30T16:57:03.903Z,13.33
2018-04-30T16:59:31.668Z,11.50
2018-04-30T17:01:59.350Z,14.17
2018-04-30T17:04:27.057Z,15.07
2018-04-30T17:06:55.322Z,16.40
2018-04-30T17:09:23.519Z,11.10
2018-04-30T17:14:24.687Z,13.37
2018-04-30T17:16:56.709Z,13.50
2018-04-30T17:22:13.932Z,22.77
2018-04-30T17:24:41.945Z,16.23
2018-04-30T17:27:09.750Z,18.97
2018-04-30T17:29:38.714Z,19.17
2018-04-30T17:32:06.458Z,16.83
2018-04-30T17:34:34.106Z,13.83
2018-04-30T17:37:02.013Z,17.87
2018-04-30T17:39:29.987Z,18.67
2018-04-30T17:41:57.710Z,18.67
2018-04-30T17:44:25.435Z,21.77
2018-04-30T17:46:53.185Z,21.30
2018-04-30T17:49:20.825Z,19.67
2018-04-30T17:51:48.513Z,20.40
2018-04-30T17:54:16.278Z,20.43
2018-04-30T17:56:43.937Z,17.40
2018-04-30T17:59:11.774Z,15.73
2018-04-30T18:01:39.455Z,33.97
2018-04-30T18:04:07.173Z,28.67
2018-04-30T18:06:34.986Z,22.17
2018-04-30T18:09:02.666Z,18.30
2018-04-30T18:11:30.362Z,25.70
2018-04-30T18:13:58.125Z,20.03
2018-04-30T18:16:25.726Z,23.20
2018-04-30T18:18:53.436Z,16.67
2018-04-30T18:21:21.073Z,26.70
2018-04-30T18:23:48.682Z,22.27
2018-04-30T18:26:16.321Z,22.93
2018-04-30T18:28:43.957Z,23.47
2018-04-30T18:31:11.554Z,20.50
2018-04-30T18:33:39.302Z,28.07
2018-04-30T18:36:10.466Z,23.23
2018-04-30T18:38:38.195Z,20.40
2018-04-30T18:41:05.900Z,19.77
2018-04-30T18:43:33.590Z,17.63
2018-04-30T18:46:01.234Z,17.10
2018-04-30T18:48:28.925Z,16.77
2018-04-30T18:50:56.645Z,16.93
2018-04-30T18:53:24.309Z,16.97
2018-04-30T18:55:51.926Z,12.40
2018-04-30T18:58:19.582Z,16.07
2018-04-30T19:00:47.397Z,13.60
2018-04-30T19:03:15.113Z,14.37
2018-04-30T19:05:42.826Z,17.27
2018-04-30T19:08:10.566Z,15.93
2018-04-30T19:10:38.277Z,16.00
2018-04-30T19:13:05.983Z,12.07
2018-04-30T19:15:33.596Z,15.20
2018-04-30T19:18:01.282Z,13.50
2018-04-30T19:20:28.926Z,14.53
2018-04-30T19:22:56.534Z,13.00
2018-04-30T19:25:24.222Z,16.23
2018-04-30T19:27:52.814Z,15.93
2018-04-30T19:30:20.439Z,13.63
2018-04-30T19:32:48.114Z,18.03
2018-04-30T19:35:15.869Z,14.43
2018-04-30T19:37:43.533Z,13.23
2018-04-30T19:40:11.247Z,16.27
2018-04-30T19:42:38.908Z,18.63
2018-04-30T19:45:06.553Z,19.70
2018-04-30T19:47:34.167Z,22.03
2018-04-30T19:50:01.830Z,20.90
2018-04-30T19:52:29.525Z,17.40
2018-04-30T19:54:57.061Z,17.10
2018-04-30T19:57:24.698Z,19.40
2018-04-30T19:59:52.289Z,15.30
2018-04-30T20:02:19.885Z,16.50
2018-04-30T20:04:47.529Z,15.63
2018-04-30T20:07:15.130Z,15.33
2018-04-30T20:09:42.730Z,25.83
2018-04-30T20:12:10.414Z,19.20
2018-04-30T20:14:38.069Z,21.17
2018-04-30T20:17:05.702Z,15.67
2018-04-30T20:19:33.365Z,23.47
2018-04-30T20:22:01.070Z,20.93
2018-04-30T20:24:28.725Z,16.67
2018-04-30T20:26:56.463Z,19.03
2018-04-30T20:29:24.098Z,23.50
2018-04-30T20:31:51.793Z,18.87
2018-04-30T20:34:19.473Z,14.13
2018-04-30T20:36:47.118Z,16.67
2018-04-30T20:39:14.810Z,12.53
2018-04-30T20:41:42.473Z,9.70
2018-04-30T20:44:10.089Z,13.60
2018-04-30T20:46:37.830Z,17.20
2018-04-30T20:49:05.614Z,15.07
2018-04-30T20:51:33.296Z,12.50
2018-04-30T20:54:01.053Z,10.53
2018-04-30T20:56:28.781Z,13.27
2018-04-30T20:58:56.437Z,11.87
2018-04-30T21:01:24.081Z,12.57
2018-04-30T21:03:51.709Z,13.23
2018-04-30T21:06:19.371Z,11.67
2018-04-30T21:08:58.857Z,14.97
2018-04-30T21:11:26.522Z,18.93
2018-04-30T21:13:54.171Z,13.53
2018-04-30T21:16:21.914Z,14.43
2018-04-30T21:18:49.577Z,13.87
2018-04-30T21:21:17.241Z,15.33
2018-04-30T21:23:44.950Z,12.53
2018-04-30T21:26:12.584Z,19.90
2018-04-30T21:28:40.268Z,15.07
2018-04-30T21:31:07.974Z,21.43
2018-04-30T21:33:35.634Z,19.83
2018-04-30T21:36:03.329Z,17.40
2018-04-30T21:38:30.998Z,26.07
2018-04-30T21:40:58.677Z,19.63
2018-04-30T21:43:26.281Z,21.57
2018-04-30T21:45:53.954Z,19.60
2018-04-30T21:48:21.586Z,17.77
2018-04-30T21:50:49.267Z,23.23
2018-04-30T21:53:16.981Z,22.13
2018-04-30T21:55:44.702Z,17.97
2018-04-30T21:58:12.353Z,21.23
2018-04-30T22:00:40.075Z,16.03
2018-04-30T22:03:07.765Z,17.77
2018-04-30T22:05:35.452Z,18.53
2018-04-30T22:08:03.166Z,19.77
2018-04-30T22:10:30.838Z,20.20
2018-04-30T22:12:58.463Z,20.97
2018-04-30T22:15:26.210Z,21.63
2018-04-30T22:17:53.861Z,20.67
2018-04-30T22:20:21.565Z,24.40
2018-04-30T22:22:49.262Z,24.57
2018-04-30T22:25:16.949Z,26.03
2018-04-30T22:27:44.622Z,26.60
2018-04-30T22:30:12.306Z,22.23
2018-04-30T22:32:39.938Z,26.03
2018-04-30T22:35:07.617Z,24.30
2018-04-30T22:37:35.310Z,25.97
2018-04-30T22:40:03.026Z,21.03
2018-04-30T22:42:30.685Z,23.40
2018-04-30T22:44:58.413Z,25.23
2018-04-30T22:47:26.129Z,22.50
2018-04-30T22:49:53.822Z,20.63
2018-04-30T22:52:21.495Z,25.77
2018-04-30T22:54:49.157Z,20.27
2018-04-30T22:57:16.805Z,21.00
2018-04-30T22:59:44.485Z,16.40
2018-04-30T23:02:12.153Z,16.80
2018-04-30T23:04:39.776Z,20.23
2018-04-30T23:07:07.454Z,24.13
2018-04-30T23:09:35.097Z,16.70
2018-04-30T23:12:02.790Z,10.97
2018-04-30T23:14:30.505Z,15.77
2018-04-30T23:16:58.197Z,10.93
2018-04-30T23:19:25.885Z,10.23
2018-04-30T23:21:53.657Z,12.77
2018-04-30T23:24:21.313Z,11.03
2018-04-30T23:26:48.976Z,13.53
2018-04-30T23:29:16.693Z,12.80
2018-04-30T23:31:44.394Z,9.50
2018-04-30T23:34:12.126Z,11.60
2018-04-30T23:36:39.793Z,12.10
2018-04-30T23:39:07.470Z,9.17
2018-04-30T23:41:35.145Z,16.87
2018-04-30T23:44:02.810Z,8.93
2018-04-30T23:46:30.437Z,13.50
2018-04-30T23:48:58.046Z,10.13
2018-04-30T23:51:25.753Z,11.27
2018-04-30T23:53:53.445Z,8.50
2018-04-30T23:56:21.120Z,8.80
2018-04-30T23:58:48.813Z,11.67
